Time;durP1;ratioP1;P1;durP2;ratioP2;P2;SDS_P1;SDS_P2;PMS_P1;PMS_P2;Temp;Humidity;BMP_temperature;BMP_pressure;BME280_temperature;BME280_humidity;BME280_pressure;Samples;Min_cycle;Max_cycle;Signal;HPM_P1;HPM_P2
2023/05/11 00:01:54;;;;;;;0.70;0.40;;;;;;;;;;5056257;28;20104;-57
2023/05/11 00:04:20;;;;;;;1.63;0.73;;;;;;;;;;5057042;28;20451;-58
2023/05/11 00:06:46;;;;;;;1.25;0.50;;;;;;;;;;5056543;28;20415;-58
2023/05/11 00:09:12;;;;;;;1.15;0.40;;;;;;;;;;5056656;28;20392;-56
2023/05/11 00:11:38;;;;;;;1.23;0.40;;;;;;;;;;5056278;28;20510;-58
2023/05/11 00:14:04;;;;;;;1.27;0.50;;;;;;;;;;5056146;28;20053;-58
2023/05/11 00:16:30;;;;;;;0.98;0.52;;;;;;;;;;5056984;28;20047;-57
2023/05/11 00:18:56;;;;;;;0.57;0.13;;;;;;;;;;5056797;28;20116;-58
2023/05/11 00:21:22;;;;;;;0.63;0.30;;;;;;;;;;5055951;28;20383;-58
2023/05/11 00:23:49;;;;;;;0.90;0.40;;;;;;;;;;5056074;28;20066;-58
2023/05/11 00:26:15;;;;;;;2.40;0.50;;;;;;;;;;5057019;28;20082;-58
2023/05/11 00:28:41;;;;;;;0.90;0.40;;;;;;;;;;5056309;28;20253;-57
2023/05/11 00:31:07;;;;;;;0.50;0.20;;;;;;;;;;5056565;28;20074;-58
2023/05/11 00:33:33;;;;;;;1.65;0.68;;;;;;;;;;5056009;28;20028;-58
2023/05/11 00:35:59;;;;;;;0.47;0.20;;;;;;;;;;5056531;28;20036;-58
2023/05/11 00:38:25;;;;;;;0.60;0.30;;;;;;;;;;5055997;28;20036;-57
2023/05/11 00:40:51;;;;;;;0.90;0.30;;;;;;;;;;5056271;28;20028;-57
2023/05/11 00:43:17;;;;;;;0.98;0.50;;;;;;;;;;5055758;28;20455;-58
2023/05/11 00:45:46;;;;;;;0.80;0.40;;;;;;;;;;5055828;28;20083;-58
2023/05/11 00:48:12;;;;;;;0.98;0.45;;;;;;;;;;5055573;28;20040;-58
2023/05/11 00:50:38;;;;;;;0.95;0.50;;;;;;;;;;5056149;28;20044;-58
2023/05/11 00:53:04;;;;;;;1.08;0.50;;;;;;;;;;5055877;28;20035;-58
2023/05/11 00:55:30;;;;;;;1.00;0.40;;;;;;;;;;5055602;28;20374;-58
2023/05/11 00:57:56;;;;;;;4.28;0.50;;;;;;;;;;5055441;28;20040;-58
2023/05/11 01:00:22;;;;;;;0.63;0.28;;;;;;;;;;5055352;28;20067;-58
2023/05/11 01:02:48;;;;;;;0.73;0.45;;;;;;;;;;5055284;28;20056;-57
2023/05/11 01:05:15;;;;;;;0.55;0.25;;;;;;;;;;5054709;28;20400;-58
2023/05/11 01:08:01;;;;;;;1.45;0.80;;;;;;;;;;5055649;28;20033;-58
2023/05/11 01:10:27;;;;;;;0.90;0.40;;;;;;;;;;5055571;28;20033;-58
2023/05/11 01:13:12;;;;;;;1.10;0.50;;;;;;;;;;5055766;28;20028;-58
2023/05/11 01:15:44;;;;;;;0.73;0.40;;;;;;;;;;5055362;28;20049;-57
2023/05/11 01:18:31;;;;;;;1.42;0.60;;;;;;;;;;5054931;28;20102;-58
2023/05/11 01:20:58;;;;;;;0.80;0.40;;;;;;;;;;5055054;28;20032;-57
2023/05/11 01:23:43;;;;;;;1.00;0.40;;;;;;;;;;5055043;28;20025;-58
2023/05/11 01:26:27;;;;;;;1.10;0.40;;;;;;;;;;5055311;28;20040;-57
2023/05/11 01:29:12;;;;;;;0.80;0.43;;;;;;;;;;5054644;28;20064;-57
2023/05/11 01:31:39;;;;;;;0.80;0.50;;;;;;;;;;5054560;28;20479;-57
2023/05/11 01:34:09;;;;;;;0.85;0.40;;;;;;;;;;5054767;28;20055;-58
2023/05/11 01:36:37;;;;;;;1.00;0.50;;;;;;;;;;5055004;28;20078;-58
2023/05/11 01:39:09;;;;;;;1.10;0.45;;;;;;;;;;5054988;28;20485;-58
2023/05/11 01:41:36;;;;;;;1.30;0.60;;;;;;;;;;5054657;28;20082;-57
2023/05/11 01:44:04;;;;;;;0.65;0.30;;;;;;;;;;5054325;28;20021;-58
2023/05/11 01:46:32;;;;;;;0.90;0.32;;;;;;;;;;5054906;28;20087;-58
2023/05/11 01:48:59;;;;;;;1.23;0.60;;;;;;;;;;5055013;28;20033;-58
2023/05/11 01:51:30;;;;;;;0.75;0.30;;;;;;;;;;5054432;28;20032;-58
2023/05/11 01:53:56;;;;;;;0.80;0.38;;;;;;;;;;5054947;28;20363;-57
2023/05/11 01:56:23;;;;;;;1.05;0.50;;;;;;;;;;5054912;28;20071;-57
2023/05/11 01:58:50;;;;;;;0.75;0.30;;;;;;;;;;5054643;28;20138;-57
2023/05/11 02:01:17;;;;;;;0.70;0.35;;;;;;;;;;5054800;28;20397;-58
2023/05/11 02:03:45;;;;;;;0.65;0.30;;;;;;;;;;5055013;28;20336;-58
2023/05/11 02:06:14;;;;;;;0.77;0.43;;;;;;;;;;5054781;28;20029;-58
2023/05/11 02:08:40;;;;;;;0.77;0.30;;;;;;;;;;5054096;28;20029;-58
2023/05/11 02:11:06;;;;;;;0.75;0.35;;;;;;;;;;5054426;28;20029;-57
2023/05/11 02:13:34;;;;;;;0.90;0.38;;;;;;;;;;5054257;28;20071;-58
2023/05/11 02:16:00;;;;;;;0.95;0.50;;;;;;;;;;5054323;28;20075;-58
2023/05/11 02:18:27;;;;;;;1.27;0.47;;;;;;;;;;5053941;28;20033;-58
2023/05/11 02:20:54;;;;;;;1.40;0.63;;;;;;;;;;5054032;28;20025;-58
2023/05/11 02:23:20;;;;;;;1.77;0.63;;;;;;;;;;5054000;28;20025;-58
2023/05/11 02:25:48;;;;;;;0.82;0.40;;;;;;;;;;5053985;28;20035;-58
2023/05/11 02:28:14;;;;;;;2.00;0.80;;;;;;;;;;5054138;28;20025;-57
2023/05/11 02:30:47;;;;;;;1.60;0.73;;;;;;;;;;5054425;28;20029;-57
2023/05/11 02:33:21;;;;;;;3.10;0.70;;;;;;;;;;5053844;28;20029;-57
2023/05/11 02:35:48;;;;;;;0.90;0.50;;;;;;;;;;5054376;28;20174;-57
2023/05/11 02:38:15;;;;;;;0.85;0.40;;;;;;;;;;5053745;28;20452;-58
2023/05/11 02:40:46;;;;;;;1.20;0.63;;;;;;;;;;5054002;28;20044;-57
2023/05/11 02:43:15;;;;;;;1.13;0.60;;;;;;;;;;5053678;28;20025;-57
2023/05/11 02:45:46;;;;;;;1.40;0.70;;;;;;;;;;5053963;28;20052;-58
2023/05/11 02:48:11;;;;;;;;;;;;;;;;;;5053999;28;20037;-58
2023/05/11 02:50:40;;;;;;;1.63;0.55;;;;;;;;;;5053904;28;19912;-57
2023/05/11 02:53:10;;;;;;;3.03;0.60;;;;;;;;;;5053807;28;20021;-58
2023/05/11 02:55:36;;;;;;;0.98;0.55;;;;;;;;;;5053843;28;20025;-58
2023/05/11 02:58:02;;;;;;;1.33;0.68;;;;;;;;;;5053506;28;20025;-58
2023/05/11 03:00:28;;;;;;;1.52;0.70;;;;;;;;;;5053262;28;20063;-57
2023/05/11 03:02:54;;;;;;;1.45;0.60;;;;;;;;;;5054113;28;20094;-58
2023/05/11 03:05:20;;;;;;;1.17;0.70;;;;;;;;;;5053998;28;20021;-58
2023/05/11 03:07:46;;;;;;;1.20;0.70;;;;;;;;;;5053811;28;20481;-58
2023/05/11 03:10:12;;;;;;;0.77;0.47;;;;;;;;;;5053482;28;20033;-57
2023/05/11 03:12:38;;;;;;;1.15;0.43;;;;;;;;;;5053167;28;20017;-58
2023/05/11 03:15:04;;;;;;;0.82;0.40;;;;;;;;;;5053386;28;20124;-58
2023/05/11 03:17:31;;;;;;;0.98;0.47;;;;;;;;;;5053882;28;20037;-57
2023/05/11 03:19:58;;;;;;;1.55;0.80;;;;;;;;;;5053614;28;20029;-57
2023/05/11 03:22:24;;;;;;;1.20;0.60;;;;;;;;;;5053658;28;20100;-56
2023/05/11 03:24:51;;;;;;;1.08;0.60;;;;;;;;;;5053071;28;20037;-57
2023/05/11 03:27:17;;;;;;;1.05;0.50;;;;;;;;;;5055177;28;20029;-58
2023/05/11 03:29:44;;;;;;;1.73;0.80;;;;;;;;;;5057362;28;20026;-57
2023/05/11 03:32:10;;;;;;;0.85;0.50;;;;;;;;;;5056849;28;20021;-57
2023/05/11 03:34:36;;;;;;;1.17;0.55;;;;;;;;;;5057114;28;20031;-57
2023/05/11 03:37:04;;;;;;;1.00;0.50;;;;;;;;;;5057373;28;20029;-58
2023/05/11 03:39:32;;;;;;;0.98;0.40;;;;;;;;;;5057056;28;20487;-58
2023/05/11 03:41:58;;;;;;;1.20;0.65;;;;;;;;;;5057314;28;20032;-58
2023/05/11 03:44:25;;;;;;;1.70;0.60;;;;;;;;;;5057058;28;20029;-58
2023/05/11 03:46:52;;;;;;;1.13;0.68;;;;;;;;;;5057479;28;20032;-58
2023/05/11 03:49:19;;;;;;;1.25;0.63;;;;;;;;;;5056942;28;20047;-57
2023/05/11 03:51:45;;;;;;;1.40;0.70;;;;;;;;;;5056757;28;20025;-57
2023/05/11 03:54:12;;;;;;;1.60;0.60;;;;;;;;;;5056862;28;20462;-57
2023/05/11 03:56:38;;;;;;;1.45;0.60;;;;;;;;;;5056041;28;20116;-58
2023/05/11 03:59:04;;;;;;;1.40;0.60;;;;;;;;;;5056935;28;20025;-58
2023/05/11 04:01:31;;;;;;;1.63;0.70;;;;;;;;;;5056702;28;20086;-58
2023/05/11 04:03:57;;;;;;;0.98;0.55;;;;;;;;;;5056928;28;20040;-57
2023/05/11 04:06:23;;;;;;;1.10;0.68;;;;;;;;;;5056954;28;20100;-58
2023/05/11 04:08:49;;;;;;;2.63;0.65;;;;;;;;;;5056827;28;20025;-58
2023/05/11 04:11:15;;;;;;;0.85;0.40;;;;;;;;;;5056465;28;20036;-58
2023/05/11 04:13:41;;;;;;;1.67;0.60;;;;;;;;;;5056436;28;20443;-57
2023/05/11 04:16:07;;;;;;;0.75;0.30;;;;;;;;;;5055941;28;20049;-58
2023/05/11 04:18:33;;;;;;;3.85;0.77;;;;;;;;;;5056294;28;20033;-58
2023/05/11 04:21:00;;;;;;;0.90;0.60;;;;;;;;;;5056597;28;20033;-58
2023/05/11 04:23:26;;;;;;;1.23;0.63;;;;;;;;;;5056120;28;20036;-58
2023/05/11 04:25:55;;;;;;;0.98;0.47;;;;;;;;;;5056248;28;20029;-57
2023/05/11 04:28:22;;;;;;;0.68;0.40;;;;;;;;;;5056402;28;20041;-58
2023/05/11 04:30:52;;;;;;;1.75;0.80;;;;;;;;;;5056654;28;20036;-58
2023/05/11 04:33:19;;;;;;;1.10;0.60;;;;;;;;;;5056593;28;20029;-58
2023/05/11 04:35:45;;;;;;;1.40;0.70;;;;;;;;;;5056560;28;20064;-58
2023/05/11 04:38:10;;;;;;;0.93;0.40;;;;;;;;;;5055509;28;20049;-58
2023/05/11 04:40:36;;;;;;;1.30;0.52;;;;;;;;;;5056426;28;20025;-58
2023/05/11 04:43:02;;;;;;;0.70;0.30;;;;;;;;;;5056187;28;20074;-57
2023/05/11 04:45:28;;;;;;;0.88;0.50;;;;;;;;;;5055882;28;20021;-57
2023/05/11 04:47:54;;;;;;;1.23;0.60;;;;;;;;;;5055993;28;20029;-57
2023/05/11 04:50:20;;;;;;;1.20;0.60;;;;;;;;;;5055446;28;20025;-57
2023/05/11 04:52:46;;;;;;;1.35;0.68;;;;;;;;;;5055240;28;20020;-57
2023/05/11 04:55:12;;;;;;;0.75;0.40;;;;;;;;;;5055847;28;20020;-57
2023/05/11 04:57:38;;;;;;;1.17;0.70;;;;;;;;;;5056013;28;20362;-58
2023/05/11 05:00:06;;;;;;;1.67;0.63;;;;;;;;;;5055534;28;20087;-59
2023/05/11 05:02:32;;;;;;;1.15;0.55;;;;;;;;;;5055166;28;20429;-59
2023/05/11 05:04:58;;;;;;;0.85;0.40;;;;;;;;;;5055536;28;20029;-59
2023/05/11 05:07:24;;;;;;;0.70;0.43;;;;;;;;;;5056100;28;20025;-59
2023/05/11 05:09:50;;;;;;;1.45;0.75;;;;;;;;;;5055321;28;20470;-59
2023/05/11 05:12:16;;;;;;;1.30;0.63;;;;;;;;;;5055609;28;20055;-59
2023/05/11 05:14:42;;;;;;;1.02;0.50;;;;;;;;;;5055551;28;20145;-59
2023/05/11 05:17:08;;;;;;;2.30;0.77;;;;;;;;;;5055667;28;20115;-58
2023/05/11 05:19:34;;;;;;;4.40;0.70;;;;;;;;;;5055134;28;20025;-59
2023/05/11 05:22:01;;;;;;;1.27;0.63;;;;;;;;;;5055564;28;20073;-59
2023/05/11 05:24:27;;;;;;;1.33;0.60;;;;;;;;;;5055018;28;20036;-59
2023/05/11 05:26:53;;;;;;;1.13;0.52;;;;;;;;;;5054989;28;20029;-59
2023/05/11 05:29:19;;;;;;;1.98;0.70;;;;;;;;;;5055054;28;20048;-59
2023/05/11 05:31:45;;;;;;;2.00;0.80;;;;;;;;;;5054752;28;20021;-59
2023/05/11 05:34:11;;;;;;;1.95;0.60;;;;;;;;;;5054860;28;20169;-59
2023/05/11 05:36:38;;;;;;;3.28;0.63;;;;;;;;;;5055274;28;20036;-59
2023/05/11 05:39:08;;;;;;;1.38;0.75;;;;;;;;;;5054456;28;20028;-59
2023/05/11 05:41:35;;;;;;;1.05;0.52;;;;;;;;;;5054897;28;20021;-59
2023/05/11 05:44:01;;;;;;;1.63;0.70;;;;;;;;;;5054339;28;20390;-58
2023/05/11 05:46:27;;;;;;;1.38;0.65;;;;;;;;;;5055112;28;20040;-58
2023/05/11 05:48:54;;;;;;;0.95;0.50;;;;;;;;;;5054790;28;20017;-58
2023/05/11 05:51:21;;;;;;;1.00;0.35;;;;;;;;;;5054088;28;20021;-58
2023/05/11 05:53:47;;;;;;;2.30;1.10;;;;;;;;;;5054904;28;20028;-58
2023/05/11 05:56:13;;;;;;;1.65;0.75;;;;;;;;;;5054359;28;20021;-58
2023/05/11 05:58:39;;;;;;;1.63;0.88;;;;;;;;;;5054247;28;20037;-58
2023/05/11 06:01:05;;;;;;;1.27;0.70;;;;;;;;;;5054518;28;20021;-58
2023/05/11 06:03:31;;;;;;;2.35;1.10;;;;;;;;;;5054271;28;20482;-58
2023/05/11 06:05:57;;;;;;;1.17;0.70;;;;;;;;;;5054802;28;20028;-58
2023/05/11 06:08:23;;;;;;;1.27;0.70;;;;;;;;;;5054578;28;20025;-58
2023/05/11 06:10:49;;;;;;;1.15;0.63;;;;;;;;;;5054284;28;20075;-58
2023/05/11 06:13:15;;;;;;;0.82;0.52;;;;;;;;;;5053987;28;20029;-58
2023/05/11 06:15:41;;;;;;;1.00;0.55;;;;;;;;;;5054378;28;20052;-58
2023/05/11 06:18:07;;;;;;;1.20;0.68;;;;;;;;;;5053885;28;20064;-58
2023/05/11 06:20:33;;;;;;;1.17;0.70;;;;;;;;;;5054010;28;20100;-58
2023/05/11 06:22:59;;;;;;;1.58;0.75;;;;;;;;;;5053800;28;20036;-58
2023/05/11 06:25:26;;;;;;;1.33;0.70;;;;;;;;;;5053998;28;20021;-58
2023/05/11 06:27:52;;;;;;;2.38;0.68;;;;;;;;;;5054366;28;20033;-58
2023/05/11 06:30:18;;;;;;;1.75;0.85;;;;;;;;;;5053861;28;20391;-58
2023/05/11 06:32:44;;;;;;;1.45;0.90;;;;;;;;;;5053760;28;20025;-58
2023/05/11 06:35:10;;;;;;;1.80;0.88;;;;;;;;;;5054133;28;20025;-58
2023/05/11 06:37:36;;;;;;;0.93;0.47;;;;;;;;;;5053785;28;20036;-58
2023/05/11 06:40:02;;;;;;;1.50;0.70;;;;;;;;;;5053749;28;20032;-58
2023/05/11 06:42:28;;;;;;;1.48;0.80;;;;;;;;;;5053707;28;20033;-58
2023/05/11 06:44:54;;;;;;;1.80;0.57;;;;;;;;;;5053759;28;20032;-58
2023/05/11 06:47:20;;;;;;;1.40;0.65;;;;;;;;;;5053741;28;20025;-58
2023/05/11 06:49:45;;;;;;;1.98;0.98;;;;;;;;;;5053679;28;20029;-58
2023/05/11 06:52:12;;;;;;;1.38;0.60;;;;;;;;;;5053610;28;20033;-58
2023/05/11 06:54:38;;;;;;;1.45;0.70;;;;;;;;;;5053888;28;20513;-58
2023/05/11 06:57:03;;;;;;;2.03;1.00;;;;;;;;;;5053923;28;20041;-58
2023/05/11 06:59:31;;;;;;;1.67;0.80;;;;;;;;;;5053921;28;20032;-58
2023/05/11 07:01:57;;;;;;;1.20;0.63;;;;;;;;;;5054628;28;20075;-58
2023/05/11 07:04:23;;;;;;;1.98;0.90;;;;;;;;;;5057612;28;20048;-58
2023/05/11 07:06:49;;;;;;;1.63;0.95;;;;;;;;;;5058110;28;20107;-58
2023/05/11 07:09:15;;;;;;;2.25;0.73;;;;;;;;;;5057405;28;20025;-58
2023/05/11 07:11:41;;;;;;;1.00;0.52;;;;;;;;;;5058127;28;20072;-58
2023/05/11 07:14:07;;;;;;;2.58;0.85;;;;;;;;;;5057550;28;20055;-58
2023/05/11 07:16:38;;;;;;;1.85;0.93;;;;;;;;;;5057698;28;20025;-58
2023/05/11 07:19:04;;;;;;;2.20;1.20;;;;;;;;;;5057954;28;20037;-58
2023/05/11 07:21:33;;;;;;;1.33;0.80;;;;;;;;;;5057394;28;20032;-58
2023/05/11 07:23:59;;;;;;;1.60;0.82;;;;;;;;;;5057589;28;20412;-58
2023/05/11 07:26:25;;;;;;;3.22;1.33;;;;;;;;;;5057668;28;20478;-58
2023/05/11 07:28:51;;;;;;;1.40;0.77;;;;;;;;;;5057165;28;20037;-58
2023/05/11 07:31:17;;;;;;;1.50;0.90;;;;;;;;;;5057276;28;20070;-58
2023/05/11 07:33:43;;;;;;;3.70;0.98;;;;;;;;;;5057711;28;20439;-58
2023/05/11 07:36:09;;;;;;;1.92;0.90;;;;;;;;;;5057221;28;20466;-58
2023/05/11 07:38:35;;;;;;;1.52;0.77;;;;;;;;;;5056927;28;20038;-58
2023/05/11 07:41:01;;;;;;;1.48;0.65;;;;;;;;;;5057410;28;20029;-59
2023/05/11 07:43:27;;;;;;;2.25;0.88;;;;;;;;;;5057457;28;20120;-60
2023/05/11 07:45:53;;;;;;;1.38;0.77;;;;;;;;;;5057478;28;20057;-58
2023/05/11 07:48:20;;;;;;;1.95;1.13;;;;;;;;;;5056928;28;20036;-59
2023/05/11 07:50:46;;;;;;;1.83;0.98;;;;;;;;;;5056783;28;20071;-59
2023/05/11 07:53:12;;;;;;;2.38;0.90;;;;;;;;;;5056577;28;20375;-59
2023/05/11 07:55:38;;;;;;;4.43;0.90;;;;;;;;;;5056779;28;20064;-58
2023/05/11 07:58:04;;;;;;;1.60;0.82;;;;;;;;;;5056783;28;20466;-58
2023/05/11 08:00:30;;;;;;;2.90;0.93;;;;;;;;;;5056332;28;20021;-58
2023/05/11 08:02:56;;;;;;;1.70;1.02;;;;;;;;;;5056506;28;20029;-58
2023/05/11 08:05:22;;;;;;;1.38;0.93;;;;;;;;;;5056456;28;20025;-58
2023/05/11 08:07:48;;;;;;;1.58;0.93;;;;;;;;;;5056879;28;20111;-58
2023/05/11 08:10:14;;;;;;;1.85;1.08;;;;;;;;;;5056505;28;20029;-60
2023/05/11 08:12:40;;;;;;;1.88;1.00;;;;;;;;;;5056525;28;20021;-60
2023/05/11 08:15:07;;;;;;;1.38;0.85;;;;;;;;;;5056390;28;20049;-59
2023/05/11 08:17:32;;;;;;;2.13;0.75;;;;;;;;;;5056753;28;20036;-59
2023/05/11 08:19:58;;;;;;;2.22;1.20;;;;;;;;;;5056334;28;20025;-59
2023/05/11 08:22:25;;;;;;;1.65;0.80;;;;;;;;;;5056324;28;20462;-59
2023/05/11 08:24:51;;;;;;;1.63;0.85;;;;;;;;;;5056795;28;20491;-59
2023/05/11 08:27:17;;;;;;;1.80;0.82;;;;;;;;;;5056577;28;20069;-59
2023/05/11 08:29:43;;;;;;;1.58;0.88;;;;;;;;;;5056205;28;20052;-59
2023/05/11 08:32:09;;;;;;;1.38;0.65;;;;;;;;;;5056380;28;20030;-59
2023/05/11 08:34:35;;;;;;;1.25;0.70;;;;;;;;;;5056265;28;20036;-59
2023/05/11 08:37:01;;;;;;;1.10;0.57;;;;;;;;;;5056024;28;20041;-59
2023/05/11 08:39:28;;;;;;;1.67;0.82;;;;;;;;;;5056481;28;20033;-59
2023/05/11 08:41:58;;;;;;;2.05;0.88;;;;;;;;;;5055659;28;20075;-57
2023/05/11 08:44:25;;;;;;;2.00;0.82;;;;;;;;;;5056784;28;20029;-57
2023/05/11 08:46:53;;;;;;;1.60;0.75;;;;;;;;;;5056295;28;20037;-57
2023/05/11 08:49:19;;;;;;;1.20;0.70;;;;;;;;;;5056572;28;20130;-57
2023/05/11 08:51:45;;;;;;;1.90;1.00;;;;;;;;;;5055616;28;20375;-57
2023/05/11 08:54:11;;;;;;;2.53;1.10;;;;;;;;;;5055538;28;20426;-57
2023/05/11 08:56:39;;;;;;;1.35;0.80;;;;;;;;;;5056000;28;20025;-57
2023/05/11 08:59:05;;;;;;;1.13;0.75;;;;;;;;;;5055776;28;20028;-57
2023/05/11 09:01:31;;;;;;;1.90;0.90;;;;;;;;;;5055518;28;20103;-57
2023/05/11 09:03:57;;;;;;;2.42;0.93;;;;;;;;;;5055684;28;20444;-57
2023/05/11 09:06:24;;;;;;;1.75;1.17;;;;;;;;;;5055862;28;20031;-57
2023/05/11 09:08:50;;;;;;;1.48;0.75;;;;;;;;;;5055430;28;20111;-57
2023/05/11 09:11:16;;;;;;;1.98;1.42;;;;;;;;;;5055112;28;20061;-57
2023/05/11 09:13:42;;;;;;;3.25;0.88;;;;;;;;;;5055299;28;20063;-57
2023/05/11 09:16:08;;;;;;;1.40;0.70;;;;;;;;;;5055952;28;20045;-57
2023/05/11 09:18:34;;;;;;;1.85;1.00;;;;;;;;;;5055437;28;20481;-57
2023/05/11 09:21:01;;;;;;;4.05;1.50;;;;;;;;;;5055128;28;20029;-57
2023/05/11 09:23:27;;;;;;;1.27;0.85;;;;;;;;;;5055050;28;20033;-57
2023/05/11 09:25:54;;;;;;;2.10;1.00;;;;;;;;;;5055013;28;20021;-57
2023/05/11 09:28:26;;;;;;;2.10;1.30;;;;;;;;;;5055589;28;20033;-57
2023/05/11 09:30:53;;;;;;;2.63;1.52;;;;;;;;;;5054960;28;20466;-58
2023/05/11 09:33:23;;;;;;;1.65;1.20;;;;;;;;;;5054738;28;20429;-58
2023/05/11 09:35:49;;;;;;;2.05;1.27;;;;;;;;;;5054771;28;20036;-58
2023/05/11 09:38:17;;;;;;;2.15;1.50;;;;;;;;;;5054907;28;20035;-58
2023/05/11 09:40:51;;;;;;;4.90;1.45;;;;;;;;;;5054329;28;20416;-58
2023/05/11 09:43:27;;;;;;;2.55;1.40;;;;;;;;;;5054669;28;20059;-58
2023/05/11 09:45:54;;;;;;;1.83;1.00;;;;;;;;;;5054746;28;20092;-58
2023/05/11 09:48:20;;;;;;;2.55;1.42;;;;;;;;;;5054492;28;20037;-58
2023/05/11 09:50:47;;;;;;;2.38;1.30;;;;;;;;;;5054458;28;20051;-58
2023/05/11 09:53:13;;;;;;;2.20;1.30;;;;;;;;;;5054812;28;20452;-58
2023/05/11 09:55:50;;;;;;;3.58;1.55;;;;;;;;;;5054728;28;20029;-59
2023/05/11 09:58:16;;;;;;;2.53;1.75;;;;;;;;;;5054699;28;20029;-59
2023/05/11 10:00:49;;;;;;;2.03;1.45;;;;;;;;;;5054410;28;20032;-57
2023/05/11 10:03:16;;;;;;;2.22;1.42;;;;;;;;;;5054710;28;20033;-57
2023/05/11 10:05:54;;;;;;;2.33;1.48;;;;;;;;;;5054903;28;20391;-57
2023/05/11 10:08:26;;;;;;;2.00;1.35;;;;;;;;;;5054002;28;20032;-57
2023/05/11 10:10:53;;;;;;;2.45;1.65;;;;;;;;;;5053534;28;20031;-57
2023/05/11 10:13:20;;;;;;;1.95;1.08;;;;;;;;;;5054681;28;20108;-57
2023/05/11 10:15:48;;;;;;;2.17;1.45;;;;;;;;;;5054770;28;20460;-57
2023/05/11 10:18:14;;;;;;;2.10;1.20;;;;;;;;;;5054325;28;20068;-57
2023/05/11 10:20:40;;;;;;;2.50;1.15;;;;;;;;;;5054579;28;20024;-57
2023/05/11 10:23:06;;;;;;;2.60;1.25;;;;;;;;;;5053979;28;20024;-57
2023/05/11 10:25:33;;;;;;;2.47;1.40;;;;;;;;;;5054096;28;20036;-57
2023/05/11 10:27:59;;;;;;;1.98;1.08;;;;;;;;;;5054769;28;20403;-57
2023/05/11 10:30:26;;;;;;;1.85;1.20;;;;;;;;;;5053925;28;20025;-57
2023/05/11 10:32:52;;;;;;;2.45;1.50;;;;;;;;;;5053959;28;20433;-57
2023/05/11 10:35:18;;;;;;;2.33;1.52;;;;;;;;;;5054310;28;20063;-57
2023/05/11 10:37:45;;;;;;;2.13;1.30;;;;;;;;;;5053180;28;20119;-57
2023/05/11 10:40:11;;;;;;;2.80;1.60;;;;;;;;;;5054583;28;20037;-59
2023/05/11 10:42:37;;;;;;;2.08;1.40;;;;;;;;;;5054322;28;20025;-59
2023/05/11 10:45:12;;;;;;;2.33;1.10;;;;;;;;;;5054627;28;20465;-59
2023/05/11 10:47:46;;;;;;;2.20;1.48;;;;;;;;;;5054029;28;20421;-60
2023/05/11 10:50:34;;;;;;;2.30;1.55;;;;;;;;;;5053680;28;20022;-60
2023/05/11 10:53:19;;;;;;;3.28;2.00;;;;;;;;;;5053905;28;20033;-59
2023/05/11 10:55:56;;;;;;;2.42;1.85;;;;;;;;;;5054218;28;20025;-60
2023/05/11 10:58:43;;;;;;;3.95;1.70;;;;;;;;;;5053884;28;20026;-60
2023/05/11 11:01:19;;;;;;;2.45;1.75;;;;;;;;;;5053882;28;20371;-59
2023/05/11 11:04:04;;;;;;;2.70;1.38;;;;;;;;;;5053581;28;20108;-59
2023/05/11 11:06:32;;;;;;;1.65;0.88;;;;;;;;;;5053589;28;20260;-59
2023/05/11 11:08:58;;;;;;;1.70;1.00;;;;;;;;;;5054032;28;20032;-60
2023/05/11 11:11:38;;;;;;;2.38;1.20;;;;;;;;;;5053410;28;20391;-60
2023/05/11 11:14:04;;;;;;;2.10;1.17;;;;;;;;;;5053247;28;20406;-60
2023/05/11 11:16:31;;;;;;;1.60;1.10;;;;;;;;;;5054040;28;20203;-60
2023/05/11 11:19:16;;;;;;;2.90;1.67;;;;;;;;;;5053743;28;20036;-60
2023/05/11 11:21:43;;;;;;;2.47;1.50;;;;;;;;;;5053503;28;20459;-59
2023/05/11 11:24:08;;;;;;;8.60;1.30;;;;;;;;;;5053909;28;20340;-59
2023/05/11 11:26:48;;;;;;;2.47;1.33;;;;;;;;;;5053948;28;20070;-59
2023/05/11 11:29:14;;;;;;;4.15;1.50;;;;;;;;;;5053233;28;20025;-59
2023/05/11 11:31:40;;;;;;;4.35;1.42;;;;;;;;;;5052885;28;20471;-59
2023/05/11 11:34:24;;;;;;;3.47;1.80;;;;;;;;;;5053221;28;20021;-59
2023/05/11 11:36:57;;;;;;;3.53;1.33;;;;;;;;;;5052870;28;20540;-58
2023/05/11 11:39:27;;;;;;;2.78;1.52;;;;;;;;;;5053177;28;20413;-58
2023/05/11 11:42:03;;;;;;;1.90;1.27;;;;;;;;;;5053170;28;20123;-58
2023/05/11 11:44:30;;;;;;;2.60;1.80;;;;;;;;;;5052735;28;20025;-58
2023/05/11 11:47:14;;;;;;;2.75;2.00;;;;;;;;;;5053518;28;20028;-59
2023/05/11 11:49:41;;;;;;;3.53;2.30;;;;;;;;;;5056955;28;20025;-59
2023/05/11 11:52:11;;;;;;;2.97;2.00;;;;;;;;;;5056849;28;20021;-59
2023/05/11 11:54:41;;;;;;;2.63;2.10;;;;;;;;;;5056815;28;20353;-59
2023/05/11 11:57:49;;;;;;;3.03;1.93;;;;;;;;;;5057124;28;20033;-59
2023/05/11 12:00:20;;;;;;;2.30;1.38;;;;;;;;;;5034596;28;20033;-59
2023/05/11 12:02:46;;;;;;;2.47;1.60;;;;;;;;;;5034671;28;20369;-59
2023/05/11 12:05:13;;;;;;;2.38;1.73;;;;;;;;;;5046511;28;20379;-59
2023/05/11 12:07:43;;;;;;;3.55;1.88;;;;;;;;;;5056684;28;20100;-59
2023/05/11 12:10:10;;;;;;;5.55;1.67;;;;;;;;;;5055763;28;20017;-59
2023/05/11 12:12:37;;;;;;;2.20;1.35;;;;;;;;;;5056252;28;20029;-59
2023/05/11 12:15:05;;;;;;;2.28;1.20;;;;;;;;;;5056639;28;20090;-59
2023/05/11 12:17:33;;;;;;;1.70;1.13;;;;;;;;;;5056271;28;20041;-59
2023/05/11 12:20:13;;;;;;;1.70;0.93;;;;;;;;;;5056290;28;20029;-59
2023/05/11 12:22:39;;;;;;;1.90;0.63;;;;;;;;;;5056275;28;20442;-59
2023/05/11 12:25:05;;;;;;;1.35;0.77;;;;;;;;;;5056305;28;20067;-59
2023/05/11 12:27:31;;;;;;;1.67;0.80;;;;;;;;;;5054963;28;20040;-59
2023/05/11 12:29:58;;;;;;;1.40;0.75;;;;;;;;;;5056432;28;20021;-59
2023/05/11 12:32:31;;;;;;;1.60;0.73;;;;;;;;;;5056354;28;20071;-59
2023/05/11 12:35:05;;;;;;;2.30;0.90;;;;;;;;;;5055693;28;20463;-59
2023/05/11 12:37:32;;;;;;;1.33;0.82;;;;;;;;;;5055829;28;20029;-59
2023/05/11 12:39:59;;;;;;;4.13;1.33;;;;;;;;;;5055661;28;20044;-59
2023/05/11 12:42:26;;;;;;;2.92;1.23;;;;;;;;;;5055556;28;20459;-59
2023/05/11 12:44:52;;;;;;;2.13;1.20;;;;;;;;;;5055421;28;20059;-59
2023/05/11 12:47:18;;;;;;;2.13;1.10;;;;;;;;;;5056023;28;20037;-59
2023/05/11 12:49:44;;;;;;;1.60;1.05;;;;;;;;;;5056213;28;20439;-59
2023/05/11 12:52:12;;;;;;;2.60;1.02;;;;;;;;;;5055684;28;20108;-59
2023/05/11 12:54:40;;;;;;;3.10;0.90;;;;;;;;;;5055873;28;20115;-59
2023/05/11 12:57:07;;;;;;;1.70;1.00;;;;;;;;;;5055791;28;20370;-59
2023/05/11 12:59:37;;;;;;;1.45;0.73;;;;;;;;;;5054483;28;20052;-60
2023/05/11 13:02:06;;;;;;;3.23;1.40;;;;;;;;;;5055596;28;20029;-59
2023/05/11 13:04:32;;;;;;;1.60;0.90;;;;;;;;;;5055696;28;20709;-59
2023/05/11 13:06:58;;;;;;;2.00;1.30;;;;;;;;;;5055525;28;20033;-59
2023/05/11 13:09:24;;;;;;;1.85;1.08;;;;;;;;;;5055909;28;20489;-59
2023/05/11 13:12:06;;;;;;;1.83;1.10;;;;;;;;;;5055679;28;20536;-59
2023/05/11 13:14:32;;;;;;;2.10;0.90;;;;;;;;;;5055798;28;20060;-59
2023/05/11 13:16:58;;;;;;;1.83;1.10;;;;;;;;;;5055759;28;20040;-59
2023/05/11 13:19:28;;;;;;;2.03;0.90;;;;;;;;;;5055270;28;20033;-59
2023/05/11 13:21:54;;;;;;;2.05;1.35;;;;;;;;;;5055444;28;20036;-59
2023/05/11 13:24:21;;;;;;;1.95;1.15;;;;;;;;;;5055065;28;20025;-59
2023/05/11 13:26:46;;;;;;;2.60;1.27;;;;;;;;;;5055187;28;20162;-59
2023/05/11 13:29:12;;;;;;;2.58;1.40;;;;;;;;;;5055091;28;20025;-59
2023/05/11 13:31:42;;;;;;;5.03;1.40;;;;;;;;;;5055722;28;20029;-59
2023/05/11 13:34:08;;;;;;;2.60;1.30;;;;;;;;;;5054975;28;20070;-59
2023/05/11 13:36:34;;;;;;;1.85;1.02;;;;;;;;;;5055281;28;20025;-60
2023/05/11 13:39:00;;;;;;;2.55;1.55;;;;;;;;;;5055454;28;20033;-59
2023/05/11 13:41:26;;;;;;;1.98;1.20;;;;;;;;;;5055296;28;20104;-59
2023/05/11 13:43:52;;;;;;;2.17;1.00;;;;;;;;;;5054798;28;20028;-59
2023/05/11 13:46:18;;;;;;;1.67;0.80;;;;;;;;;;5055209;28;20021;-59
2023/05/11 13:48:44;;;;;;;1.35;0.85;;;;;;;;;;5054804;28;20037;-59
2023/05/11 13:51:10;;;;;;;1.98;0.95;;;;;;;;;;5054493;28;20028;-59
2023/05/11 13:53:36;;;;;;;2.15;0.95;;;;;;;;;;5054563;28;20021;-59
2023/05/11 13:56:03;;;;;;;1.52;0.70;;;;;;;;;;5054591;28;20065;-59
2023/05/11 13:58:29;;;;;;;1.40;0.68;;;;;;;;;;5055028;28;20044;-59
2023/05/11 14:00:55;;;;;;;1.45;0.50;;;;;;;;;;5054230;28;20063;-59
2023/05/11 14:03:22;;;;;;;2.00;0.60;;;;;;;;;;5054345;28;20040;-59
2023/05/11 14:05:48;;;;;;;1.13;0.75;;;;;;;;;;5053801;28;20023;-59
2023/05/11 14:08:14;;;;;;;2.40;1.20;;;;;;;;;;5053924;28;20037;-59
2023/05/11 14:10:40;;;;;;;1.30;0.70;;;;;;;;;;5054108;28;20025;-59
2023/05/11 14:13:07;;;;;;;1.27;0.60;;;;;;;;;;5054309;28;20096;-59
2023/05/11 14:15:33;;;;;;;1.70;0.65;;;;;;;;;;5053980;28;20056;-59
2023/05/11 14:18:02;;;;;;;0.93;0.40;;;;;;;;;;5053988;28;20127;-59
2023/05/11 14:20:28;;;;;;;1.33;0.60;;;;;;;;;;5053595;28;20490;-59
2023/05/11 14:22:54;;;;;;;2.83;0.75;;;;;;;;;;5054373;28;20021;-59
2023/05/11 14:25:20;;;;;;;2.03;0.82;;;;;;;;;;5053993;28;20028;-59
2023/05/11 14:27:48;;;;;;;1.23;0.60;;;;;;;;;;5054564;28;20086;-59
2023/05/11 14:30:14;;;;;;;0.55;0.22;;;;;;;;;;5053941;28;20017;-59
2023/05/11 14:32:40;;;;;;;1.17;0.55;;;;;;;;;;5053721;28;20029;-59
2023/05/11 14:35:06;;;;;;;0.73;0.38;;;;;;;;;;5053959;28;20033;-59
2023/05/11 14:37:32;;;;;;;1.35;0.73;;;;;;;;;;5054016;28;20032;-59
2023/05/11 14:39:58;;;;;;;3.38;0.88;;;;;;;;;;5053854;28;20458;-59
2023/05/11 14:42:24;;;;;;;1.58;0.80;;;;;;;;;;5053694;28;20445;-59
2023/05/11 14:44:50;;;;;;;2.60;1.10;;;;;;;;;;5054190;28;20052;-59
2023/05/11 14:47:16;;;;;;;1.45;0.80;;;;;;;;;;5054068;28;20111;-59